Time;durP1;ratioP1;P1;durP2;ratioP2;P2;SDS_P1;SDS_P2;PMS_P1;PMS_P2;Temp;Humidity;BMP_temperature;BMP_pressure;BME280_temperature;BME280_humidity;BME280_pressure;Samples;Min_cycle;Max_cycle;Signal;HPM_P1;HPM_P2
2021/04/13 00:00:30;;;;;;;6.37;4.83;;;;;;;;;;4935176;29;20661;-85
2021/04/13 00:02:56;;;;;;;7.27;5.37;;;;;;;;;;4930512;29;20201;-85
2021/04/13 00:05:41;;;;;;;8.53;5.50;;;;;;;;;;4934934;29;20183;-86
2021/04/13 00:08:15;;;;;;;7.27;5.40;;;;;;;;;;4934008;29;20651;-85
2021/04/13 00:10:43;;;;;;;6.27;5.27;;;;;;;;;;4934817;29;20220;-85
2021/04/13 00:13:10;;;;;;;6.73;5.23;;;;;;;;;;4934779;29;20182;-85
2021/04/13 00:15:40;;;;;;;6.03;5.27;;;;;;;;;;4934487;29;20186;-85
2021/04/13 00:18:06;;;;;;;6.97;5.40;;;;;;;;;;4934230;29;20182;-86
2021/04/13 00:20:44;;;;;;;7.63;5.73;;;;;;;;;;4934836;29;20178;-85
2021/04/13 00:23:10;;;;;;;7.90;6.00;;;;;;;;;;4934687;28;20555;-85
2021/04/13 00:25:45;;;;;;;7.93;5.33;;;;;;;;;;4934749;29;20187;-85
2021/04/13 00:28:11;;;;;;;6.40;5.23;;;;;;;;;;4934294;29;20206;-85
2021/04/13 00:31:03;;;;;;;8.13;5.40;;;;;;;;;;4934433;29;20548;-85
2021/04/13 00:33:30;;;;;;;6.13;5.03;;;;;;;;;;4931787;29;20201;-85
2021/04/13 00:36:08;;;;;;;8.20;5.60;;;;;;;;;;4934355;29;20208;-85
2021/04/13 00:38:44;;;;;;;7.70;5.30;;;;;;;;;;4935912;29;20212;-86
2021/04/13 00:41:36;;;;;;;6.17;5.30;;;;;;;;;;4934407;29;20275;-85
2021/04/13 00:44:06;;;;;;;7.93;5.83;;;;;;;;;;4931437;29;20584;-85
2021/04/13 00:46:37;;;;;;;8.80;5.40;;;;;;;;;;4934131;29;20556;-85
2021/04/13 00:49:04;;;;;;;6.27;5.20;;;;;;;;;;4934022;29;20649;-85
2021/04/13 00:51:33;;;;;;;9.07;5.60;;;;;;;;;;4933925;29;20268;-85
2021/04/13 00:53:59;;;;;;;10.30;5.87;;;;;;;;;;4933856;29;20189;-85
2021/04/13 00:56:25;;;;;;;7.80;5.73;;;;;;;;;;4933826;29;20674;-85
2021/04/13 00:58:59;;;;;;;6.87;5.40;;;;;;;;;;4934095;29;20208;-86
2021/04/13 01:01:26;;;;;;;7.50;5.37;;;;;;;;;;4933735;29;20186;-85
2021/04/13 01:03:59;;;;;;;6.63;5.17;;;;;;;;;;4936684;29;20522;-85
2021/04/13 01:06:25;;;;;;;8.90;5.53;;;;;;;;;;4938220;29;20192;-85
2021/04/13 01:09:10;;;;;;;9.13;5.80;;;;;;;;;;4936909;29;20254;-85
2021/04/13 01:11:38;;;;;;;9.30;6.20;;;;;;;;;;4937328;29;20198;-84
2021/04/13 01:14:04;;;;;;;7.03;5.80;;;;;;;;;;4938280;29;20205;-85
2021/04/13 01:16:34;;;;;;;8.80;5.03;;;;;;;;;;4938336;29;20724;-85
2021/04/13 01:19:02;;;;;;;8.33;5.87;;;;;;;;;;4938201;29;20754;-84
2021/04/13 01:21:50;;;;;;;8.50;5.50;;;;;;;;;;4937921;29;20616;-84
2021/04/13 01:24:30;;;;;;;9.90;6.07;;;;;;;;;;4937763;29;20173;-86
2021/04/13 01:26:57;;;;;;;7.47;5.40;;;;;;;;;;4937628;29;20264;-82
2021/04/13 01:29:24;;;;;;;8.20;5.80;;;;;;;;;;4937934;29;20208;-82
2021/04/13 01:31:54;;;;;;;10.17;6.30;;;;;;;;;;4937592;29;20558;-83
2021/04/13 01:34:48;;;;;;;9.07;5.70;;;;;;;;;;4937687;29;20300;-83
2021/04/13 01:37:31;;;;;;;7.93;6.00;;;;;;;;;;4937037;29;20224;-83
2021/04/13 01:42:26;;;;;;;8.40;6.47;;;;;;;;;;4937966;29;20189;-83
2021/04/13 01:44:55;;;;;;;8.30;6.17;;;;;;;;;;4937667;29;20234;-82
2021/04/13 01:47:22;;;;;;;9.33;6.33;;;;;;;;;;4937185;29;20188;-83
2021/04/13 01:49:51;;;;;;;9.47;6.70;;;;;;;;;;4938073;29;20212;-83
2021/04/13 01:52:27;;;;;;;9.23;6.17;;;;;;;;;;4939011;29;20557;-83
2021/04/13 01:54:54;;;;;;;10.37;6.07;;;;;;;;;;4937700;29;20520;-83
2021/04/13 01:57:35;;;;;;;10.13;6.30;;;;;;;;;;4937790;29;20312;-84
2021/04/13 02:00:08;;;;;;;8.33;6.47;;;;;;;;;;4937692;29;20212;-83
2021/04/13 02:02:34;;;;;;;10.63;6.77;;;;;;;;;;4937614;29;20209;-83
2021/04/13 02:05:04;;;;;;;9.47;6.67;;;;;;;;;;4936269;29;20182;-82
2021/04/13 02:08:02;;;;;;;9.63;6.73;;;;;;;;;;4937037;29;20221;-83
2021/04/13 02:10:30;;;;;;;9.30;6.63;;;;;;;;;;4937397;29;20233;-83
2021/04/13 02:12:57;;;;;;;13.53;7.20;;;;;;;;;;4938576;29;20186;-84
2021/04/13 02:15:43;;;;;;;16.43;7.17;;;;;;;;;;4935685;29;20276;-82
2021/04/13 02:18:10;;;;;;;10.27;6.83;;;;;;;;;;4936766;29;20218;-83
2021/04/13 02:20:36;;;;;;;10.37;6.63;;;;;;;;;;4936509;29;20659;-84
2021/04/13 02:23:03;;;;;;;10.27;6.57;;;;;;;;;;4936719;29;20610;-83
2021/04/13 02:25:29;;;;;;;10.03;6.70;;;;;;;;;;4936802;29;20183;-84
2021/04/13 02:27:56;;;;;;;11.27;7.07;;;;;;;;;;4936677;29;20186;-82
2021/04/13 02:30:28;;;;;;;8.20;6.20;;;;;;;;;;4936574;29;20216;-84
2021/04/13 02:32:54;;;;;;;11.03;6.43;;;;;;;;;;4936630;29;20741;-82
2021/04/13 02:35:21;;;;;;;9.27;7.10;;;;;;;;;;4936524;29;20227;-83
2021/04/13 02:37:48;;;;;;;9.23;6.97;;;;;;;;;;4936274;29;20211;-81
2021/04/13 02:40:19;;;;;;;8.60;6.73;;;;;;;;;;4936830;29;20180;-82
2021/04/13 02:42:49;;;;;;;8.20;6.33;;;;;;;;;;4936436;29;20184;-84
2021/04/13 02:45:35;;;;;;;8.67;6.70;;;;;;;;;;4936256;29;20182;-83
2021/04/13 02:48:14;;;;;;;8.27;6.63;;;;;;;;;;4935258;29;20203;-81
2021/04/13 02:50:42;;;;;;;12.97;6.37;;;;;;;;;;4936268;29;20188;-81
2021/04/13 02:53:08;;;;;;;8.20;6.60;;;;;;;;;;4936003;29;20190;-82
2021/04/13 02:55:40;;;;;;;14.17;7.40;;;;;;;;;;4936159;29;20195;-82
2021/04/13 02:58:07;;;;;;;13.00;6.63;;;;;;;;;;4936054;29;20271;-81
2021/04/13 03:00:35;;;;;;;8.13;6.47;;;;;;;;;;4936018;29;20544;-83
2021/04/13 03:03:08;;;;;;;9.00;6.97;;;;;;;;;;4935812;29;20196;-84
2021/04/13 03:05:34;;;;;;;8.37;6.73;;;;;;;;;;4935574;29;20565;-82
2021/04/13 03:08:07;;;;;;;10.43;7.13;;;;;;;;;;4935497;29;20695;-82
2021/04/13 03:10:34;;;;;;;10.63;7.03;;;;;;;;;;4935416;29;20185;-83
2021/04/13 03:13:01;;;;;;;10.27;7.03;;;;;;;;;;4935384;29;20651;-82
2021/04/13 03:15:27;;;;;;;9.63;6.57;;;;;;;;;;4935538;29;20189;-84
2021/04/13 03:17:54;;;;;;;12.37;7.33;;;;;;;;;;4935103;29;20553;-83
2021/04/13 03:20:21;;;;;;;11.80;6.90;;;;;;;;;;4935579;29;20189;-83
2021/04/13 03:22:47;;;;;;;11.63;6.83;;;;;;;;;;4935368;29;20180;-83
2021/04/13 03:25:14;;;;;;;8.90;6.50;;;;;;;;;;4934984;29;20185;-84
2021/04/13 03:27:40;;;;;;;11.03;6.73;;;;;;;;;;4934881;29;20192;-84
2021/04/13 03:30:06;;;;;;;8.23;6.53;;;;;;;;;;4935121;29;20219;-84
2021/04/13 03:32:36;;;;;;;10.70;6.50;;;;;;;;;;4934829;29;20215;-84
2021/04/13 03:35:05;;;;;;;10.30;6.73;;;;;;;;;;4935234;29;20244;-84
2021/04/13 03:37:31;;;;;;;10.93;6.90;;;;;;;;;;4935069;29;20245;-83
2021/04/13 03:39:56;;;;;;;10.73;7.07;;;;;;;;;;4935111;29;20280;-84
2021/04/13 03:42:25;;;;;;;9.57;7.03;;;;;;;;;;4953766;28;20282;-84
2021/04/13 03:44:51;;;;;;;10.20;6.77;;;;;;;;;;4938223;29;20378;-83
2021/04/13 03:47:19;;;;;;;9.80;6.90;;;;;;;;;;4953631;28;20191;-83
2021/04/13 03:49:45;;;;;;;8.27;6.43;;;;;;;;;;4938071;29;20228;-83
2021/04/13 03:52:22;;;;;;;9.47;6.40;;;;;;;;;;4954248;29;20649;-82
2021/04/13 03:54:48;;;;;;;10.27;6.43;;;;;;;;;;4938335;29;20191;-84
2021/04/13 03:57:14;;;;;;;10.13;6.80;;;;;;;;;;4953779;28;20204;-84
2021/04/13 03:59:43;;;;;;;10.53;6.13;;;;;;;;;;4953745;29;20257;-84
2021/04/13 04:02:09;;;;;;;8.90;6.30;;;;;;;;;;4938195;29;20194;-83
2021/04/13 04:04:44;;;;;;;9.00;6.83;;;;;;;;;;4938163;29;20188;-81
2021/04/13 04:07:33;;;;;;;10.83;6.90;;;;;;;;;;4953537;29;20183;-84
2021/04/13 04:09:58;;;;;;;9.93;7.07;;;;;;;;;;4953197;28;20222;-83
2021/04/13 04:12:25;;;;;;;12.77;6.73;;;;;;;;;;4937765;29;20243;-83
2021/04/13 04:15:00;;;;;;;12.00;7.00;;;;;;;;;;4954267;29;20198;-82
2021/04/13 04:17:28;;;;;;;9.53;6.43;;;;;;;;;;4954545;28;20215;-84
2021/04/13 04:20:00;;;;;;;10.80;6.53;;;;;;;;;;4954105;28;20284;-82
2021/04/13 04:22:26;;;;;;;11.17;6.40;;;;;;;;;;4953998;28;20187;-85
2021/04/13 04:24:53;;;;;;;9.53;6.23;;;;;;;;;;4953537;29;20253;-85
2021/04/13 04:27:20;;;;;;;10.07;6.60;;;;;;;;;;4937311;29;20196;-84
2021/04/13 04:29:46;;;;;;;12.10;6.90;;;;;;;;;;4953357;29;20201;-83
2021/04/13 04:32:19;;;;;;;11.43;6.73;;;;;;;;;;4954558;29;20230;-83
2021/04/13 04:34:45;;;;;;;11.10;7.20;;;;;;;;;;4953199;29;20207;-85
2021/04/13 04:37:30;;;;;;;11.87;6.93;;;;;;;;;;4953574;28;20214;-85
2021/04/13 04:40:15;;;;;;;12.50;6.70;;;;;;;;;;4957101;29;20203;-83
2021/04/13 04:42:51;;;;;;;10.87;6.90;;;;;;;;;;4957312;29;20187;-82
2021/04/13 04:45:37;;;;;;;9.57;7.27;;;;;;;;;;4940910;29;20203;-85
2021/04/13 04:48:22;;;;;;;9.83;7.30;;;;;;;;;;4954052;29;20210;-83
2021/04/13 04:50:48;;;;;;;9.53;7.03;;;;;;;;;;4955694;28;20192;-83
2021/04/13 04:53:15;;;;;;;11.67;7.03;;;;;;;;;;4954750;28;20652;-82
2021/04/13 04:55:41;;;;;;;11.27;7.13;;;;;;;;;;4936731;29;20291;-83
2021/04/13 04:58:07;;;;;;;11.13;7.63;;;;;;;;;;4940505;29;20623;-77
2021/04/13 05:00:33;;;;;;;9.07;6.97;;;;;;;;;;4962966;28;20191;-77
2021/04/13 05:02:58;;;;;;;13.00;6.87;;;;;;;;;;4975433;28;20195;-77
2021/04/13 05:05:24;;;;;;;13.03;7.50;;;;;;;;;;4975336;28;20183;-75
2021/04/13 05:07:50;;;;;;;10.87;7.30;;;;;;;;;;4958837;28;20657;-78
2021/04/13 05:10:16;;;;;;;10.57;6.80;;;;;;;;;;4972101;28;20217;-79
2021/04/13 05:12:42;;;;;;;10.80;7.03;;;;;;;;;;4968265;28;20212;-78
2021/04/13 05:15:09;;;;;;;12.93;6.87;;;;;;;;;;4974057;28;20651;-76
2021/04/13 05:17:35;;;;;;;12.70;6.67;;;;;;;;;;4955646;29;20217;-77
2021/04/13 05:20:01;;;;;;;15.00;7.50;;;;;;;;;;4955844;29;20268;-77
2021/04/13 05:22:27;;;;;;;11.33;6.90;;;;;;;;;;4956806;29;20184;-76
2021/04/13 05:24:53;;;;;;;16.20;7.67;;;;;;;;;;4956767;29;20189;-78
2021/04/13 05:27:19;;;;;;;13.23;7.27;;;;;;;;;;4955323;29;20185;-77
2021/04/13 05:29:45;;;;;;;11.43;6.53;;;;;;;;;;4955549;29;20726;-77
2021/04/13 05:32:11;;;;;;;13.97;6.60;;;;;;;;;;4955690;29;20660;-78
2021/04/13 05:34:37;;;;;;;11.73;6.73;;;;;;;;;;4956006;29;20181;-79
2021/04/13 05:37:03;;;;;;;14.10;6.93;;;;;;;;;;4956944;29;20670;-79
2021/04/13 05:39:29;;;;;;;11.23;6.53;;;;;;;;;;4956528;29;20293;-79
2021/04/13 05:41:55;;;;;;;9.80;6.60;;;;;;;;;;4939524;29;20217;-77
2021/04/13 05:44:21;;;;;;;14.37;7.23;;;;;;;;;;4955368;29;20178;-78
2021/04/13 05:46:48;;;;;;;13.53;7.10;;;;;;;;;;4955835;28;20191;-78
2021/04/13 05:49:13;;;;;;;13.93;7.43;;;;;;;;;;4954942;28;20753;-78
2021/04/13 05:51:39;;;;;;;9.40;6.40;;;;;;;;;;4956308;29;20182;-76
2021/04/13 05:54:05;;;;;;;12.80;6.23;;;;;;;;;;4956758;29;20682;-78
2021/04/13 05:56:32;;;;;;;9.87;6.27;;;;;;;;;;4952887;29;20208;-78
2021/04/13 05:58:58;;;;;;;10.03;5.97;;;;;;;;;;4955077;29;20216;-77
2021/04/13 06:01:26;;;;;;;9.57;6.07;;;;;;;;;;4955219;29;20559;-77
2021/04/13 06:03:52;;;;;;;13.63;5.90;;;;;;;;;;4954617;28;20180;-76
2021/04/13 06:06:18;;;;;;;9.30;6.03;;;;;;;;;;4970527;28;20301;-75
2021/04/13 06:08:44;;;;;;;12.97;6.40;;;;;;;;;;4955579;29;20231;-75
2021/04/13 06:11:18;;;;;;;10.17;5.70;;;;;;;;;;4955753;29;20208;-75
2021/04/13 06:13:45;;;;;;;9.47;5.67;;;;;;;;;;4955708;29;20188;-75
2021/04/13 06:16:12;;;;;;;8.60;5.27;;;;;;;;;;4955697;28;20323;-74
2021/04/13 06:18:38;;;;;;;12.13;4.80;;;;;;;;;;4955382;29;20633;-77
2021/04/13 06:21:04;;;;;;;7.97;5.00;;;;;;;;;;4954891;29;20206;-75
2021/04/13 06:23:30;;;;;;;10.80;4.50;;;;;;;;;;4950779;28;20194;-75
2021/04/13 06:25:56;;;;;;;5.63;4.03;;;;;;;;;;4954441;28;20543;-74
2021/04/13 06:28:22;;;;;;;9.30;4.40;;;;;;;;;;4958283;28;20225;-77
2021/04/13 06:30:48;;;;;;;9.30;4.47;;;;;;;;;;4965307;28;20211;-75
2021/04/13 06:33:16;;;;;;;8.17;4.10;;;;;;;;;;4954789;28;20582;-76
2021/04/13 06:35:42;;;;;;;11.13;4.87;;;;;;;;;;4952702;29;20298;-76
2021/04/13 06:38:11;;;;;;;10.67;4.40;;;;;;;;;;4953765;29;20198;-76
2021/04/13 06:41:06;;;;;;;9.73;3.97;;;;;;;;;;4953778;28;20193;-74
2021/04/13 06:43:54;;;;;;;13.33;3.77;;;;;;;;;;4868009;29;20209;-74
2021/04/13 06:46:24;;;;;;;7.80;3.50;;;;;;;;;;4945364;28;20197;-76
2021/04/13 06:49:02;;;;;;;5.70;3.23;;;;;;;;;;4956796;28;20209;-75
2021/04/13 06:51:28;;;;;;;7.27;2.83;;;;;;;;;;4962266;28;20223;-75
2021/04/13 06:54:09;;;;;;;10.70;3.03;;;;;;;;;;4954257;28;20183;-75
2021/04/13 06:56:50;;;;;;;5.80;3.07;;;;;;;;;;4954175;28;20209;-75
2021/04/13 06:59:23;;;;;;;8.50;3.27;;;;;;;;;;4951787;29;20296;-74
2021/04/13 07:01:50;;;;;;;12.40;3.10;;;;;;;;;;4952418;29;20186;-75
2021/04/13 07:04:26;;;;;;;10.70;3.30;;;;;;;;;;4952418;29;20191;-75
2021/04/13 07:06:56;;;;;;;11.47;2.80;;;;;;;;;;4939329;29;20260;-75
2021/04/13 07:09:24;;;;;;;13.93;3.53;;;;;;;;;;4953219;29;20312;-74
2021/04/13 07:12:02;;;;;;;11.27;3.17;;;;;;;;;;4954532;29;20208;-74
2021/04/13 07:14:54;;;;;;;9.07;3.40;;;;;;;;;;4950770;29;20181;-74
2021/04/13 07:17:25;;;;;;;8.70;3.50;;;;;;;;;;4931650;28;20236;-75
2021/04/13 07:20:00;;;;;;;8.17;3.20;;;;;;;;;;4937138;29;20268;-75
2021/04/13 07:22:28;;;;;;;7.07;3.27;;;;;;;;;;4953136;29;20191;-76
2021/04/13 07:24:56;;;;;;;8.50;3.30;;;;;;;;;;4953255;29;20194;-75
2021/04/13 07:27:31;;;;;;;8.50;3.00;;;;;;;;;;4952950;28;20212;-77
2021/04/13 07:30:02;;;;;;;7.60;3.30;;;;;;;;;;4952647;28;20201;-77
2021/04/13 07:32:28;;;;;;;8.83;3.33;;;;;;;;;;4953371;29;20693;-76
2021/04/13 07:34:54;;;;;;;6.57;3.23;;;;;;;;;;4936921;29;20281;-77
2021/04/13 07:37:34;;;;;;;10.53;3.70;;;;;;;;;;4952688;29;20246;-77
2021/04/13 07:40:00;;;;;;;9.60;3.33;;;;;;;;;;4951762;29;20618;-75
2021/04/13 07:42:31;;;;;;;6.90;3.23;;;;;;;;;;4936560;29;20186;-76
2021/04/13 07:44:56;;;;;;;9.20;2.93;;;;;;;;;;4948815;28;20216;-76
2021/04/13 07:47:32;;;;;;;5.93;2.87;;;;;;;;;;4952263;29;20217;-76
2021/04/13 07:49:58;;;;;;;8.60;3.20;;;;;;;;;;4952632;28;20197;-76
2021/04/13 07:52:24;;;;;;;6.57;2.83;;;;;;;;;;4952507;29;20196;-76
2021/04/13 07:54:54;;;;;;;8.27;2.30;;;;;;;;;;4949004;29;20199;-77
2021/04/13 07:57:24;;;;;;;6.37;2.53;;;;;;;;;;4946776;29;20254;-74
2021/04/13 07:59:50;;;;;;;7.07;2.70;;;;;;;;;;4952614;29;20213;-74
2021/04/13 08:02:16;;;;;;;8.27;2.80;;;;;;;;;;4952511;29;20190;-73
2021/04/13 08:04:44;;;;;;;7.77;2.47;;;;;;;;;;4952863;29;20244;-76
2021/04/13 08:07:13;;;;;;;6.20;2.43;;;;;;;;;;4952044;29;20190;-75
2021/04/13 08:09:46;;;;;;;9.23;2.73;;;;;;;;;;4953574;29;20226;-77
2021/04/13 08:12:31;;;;;;;9.83;2.17;;;;;;;;;;4954093;28;20599;-77
2021/04/13 08:14:56;;;;;;;9.07;2.13;;;;;;;;;;4954175;29;20236;-77
2021/04/13 08:17:32;;;;;;;8.67;2.10;;;;;;;;;;4953626;29;20602;-75
2021/04/13 08:20:03;;;;;;;10.40;1.87;;;;;;;;;;4952607;29;20704;-78
2021/04/13 08:22:29;;;;;;;7.03;2.00;;;;;;;;;;4952783;29;20177;-78
2021/04/13 08:24:56;;;;;;;10.63;2.13;;;;;;;;;;4952955;29;20214;-78
2021/04/13 08:27:28;;;;;;;10.97;1.80;;;;;;;;;;4952481;29;20185;-76
2021/04/13 08:30:13;;;;;;;6.00;1.63;;;;;;;;;;4953479;28;20205;-77
2021/04/13 08:33:05;;;;;;;8.30;1.80;;;;;;;;;;4950724;29;20189;-78
2021/04/13 08:35:35;;;;;;;7.77;1.90;;;;;;;;;;4955310;29;20531;-80
2021/04/13 08:38:04;;;;;;;7.40;1.97;;;;;;;;;;4946830;29;20696;-79
2021/04/13 08:40:37;;;;;;;7.47;1.93;;;;;;;;;;4959556;28;20178;-79
2021/04/13 08:43:18;;;;;;;9.00;1.73;;;;;;;;;;4942660;29;20182;-80
2021/04/13 08:46:03;;;;;;;7.57;1.87;;;;;;;;;;4942759;29;20190;-79
2021/04/13 08:48:37;;;;;;;6.00;1.47;;;;;;;;;;4968193;28;20209;-77
2021/04/13 08:51:06;;;;;;;7.70;1.73;;;;;;;;;;4935738;29;20183;-77
2021/04/13 08:53:38;;;;;;;7.67;2.03;;;;;;;;;;4953445;29;20249;-76
2021/04/13 08:56:06;;;;;;;5.70;1.50;;;;;;;;;;4933159;29;20670;-76
2021/04/13 08:58:39;;;;;;;7.40;1.80;;;;;;;;;;4947111;29;20288;-75
2021/04/13 09:01:24;;;;;;;7.93;1.60;;;;;;;;;;4952351;28;20220;-75
2021/04/13 09:03:50;;;;;;;5.47;1.33;;;;;;;;;;4950871;29;20190;-76
2021/04/13 09:06:19;;;;;;;14.77;3.23;;;;;;;;;;4953474;28;20190;-73
2021/04/13 09:09:01;;;;;;;7.67;1.80;;;;;;;;;;4951695;29;20222;-74
2021/04/13 09:11:28;;;;;;;8.00;1.73;;;;;;;;;;4952545;28;20177;-76
2021/04/13 09:14:12;;;;;;;7.87;1.43;;;;;;;;;;4953354;29;20182;-80
2021/04/13 09:16:39;;;;;;;4.50;1.47;;;;;;;;;;4955401;29;20707;-79
2021/04/13 09:19:17;;;;;;;7.67;1.43;;;;;;;;;;4932373;29;20226;-77
2021/04/13 09:21:44;;;;;;;6.13;1.10;;;;;;;;;;4953178;29;20179;-79
2021/04/13 09:24:20;;;;;;;4.47;1.03;;;;;;;;;;4939021;29;20206;-80
2021/04/13 09:26:46;;;;;;;5.17;1.30;;;;;;;;;;4958106;29;20180;-78
2021/04/13 09:29:31;;;;;;;8.90;1.70;;;;;;;;;;4963560;29;20291;-79
2021/04/13 09:31:57;;;;;;;3.77;1.20;;;;;;;;;;4958275;29;20699;-79
2021/04/13 09:34:42;;;;;;;7.20;1.50;;;;;;;;;;4942670;29;20185;-79
2021/04/13 09:37:08;;;;;;;5.00;1.40;;;;;;;;;;4956345;28;20200;-79
2021/04/13 09:39:53;;;;;;;4.93;1.00;;;;;;;;;;4956557;29;20203;-78
2021/04/13 09:42:19;;;;;;;5.67;1.37;;;;;;;;;;4954135;28;20188;-76
2021/04/13 09:45:03;;;;;;;4.27;1.20;;;;;;;;;;4956283;29;20188;-74
2021/04/13 09:47:38;;;;;;;6.37;1.57;;;;;;;;;;4956105;29;20220;-73
2021/04/13 09:50:13;;;;;;;4.47;1.27;;;;;;;;;;4955568;29;20211;-73
2021/04/13 09:53:05;;;;;;;3.83;1.37;;;;;;;;;;4954518;28;20711;-75
2021/04/13 09:55:33;;;;;;;4.47;1.10;;;;;;;;;;4931107;28;20208;-75
2021/04/13 09:58:18;;;;;;;4.80;1.37;;;;;;;;;;4953859;29;20215;-75
2021/04/13 10:00:47;;;;;;;4.80;0.90;;;;;;;;;;4954527;29;20190;-74
2021/04/13 10:03:13;;;;;;;5.50;1.20;;;;;;;;;;4954826;28;20190;-74
2021/04/13 10:05:39;;;;;;;4.53;1.30;;;;;;;;;;4955708;29;20267;-74
2021/04/13 10:08:21;;;;;;;4.97;1.20;;;;;;;;;;4954480;29;20282;-75
2021/04/13 10:11:05;;;;;;;5.30;1.10;;;;;;;;;;4954390;28;20670;-72
2021/04/13 10:13:32;;;;;;;4.37;1.40;;;;;;;;;;4950305;29;20204;-72
2021/04/13 10:16:09;;;;;;;3.40;1.07;;;;;;;;;;4954288;29;20185;-73
2021/04/13 10:18:53;;;;;;;6.57;1.20;;;;;;;;;;4954495;29;20196;-73
2021/04/13 10:21:37;;;;;;;5.67;1.43;;;;;;;;;;4955766;29;20172;-72
2021/04/13 10:24:03;;;;;;;3.17;0.97;;;;;;;;;;4955788;29;20181;-72
2021/04/13 10:26:29;;;;;;;5.47;1.10;;;;;;;;;;4955727;29;20208;-72
2021/04/13 10:29:14;;;;;;;5.33;1.10;;;;;;;;;;4955283;28;20205;-72
2021/04/13 10:31:58;;;;;;;5.70;1.40;;;;;;;;;;4955651;29;20189;-72
2021/04/13 10:34:43;;;;;;;7.43;1.30;;;;;;;;;;4955154;28;20181;-72
2021/04/13 10:37:15;;;;;;;4.20;1.00;;;;;;;;;;4954919;29;20316;-72
2021/04/13 10:39:42;;;;;;;5.13;1.00;;;;;;;;;;4954092;29;20420;-76
2021/04/13 10:42:14;;;;;;;3.07;0.83;;;;;;;;;;4954143;29;20238;-76
2021/04/13 10:44:40;;;;;;;2.90;0.80;;;;;;;;;;4955253;29;20185;-75
2021/04/13 10:47:26;;;;;;;5.63;1.43;;;;;;;;;;4955006;29;20707;-75
2021/04/13 10:50:04;;;;;;;2.97;1.10;;;;;;;;;;4907660;29;20701;-75
2021/04/13 10:52:33;;;;;;;3.23;0.80;;;;;;;;;;4949969;29;20194;-76
2021/04/13 10:55:05;;;;;;;3.23;1.20;;;;;;;;;;4954528;29;20288;-76
2021/04/13 10:57:31;;;;;;;3.93;1.03;;;;;;;;;;4952217;29;20209;-75
2021/04/13 11:00:16;;;;;;;2.10;0.90;;;;;;;;;;4954541;29;20288;-74
2021/04/13 11:02:45;;;;;;;4.17;1.10;;;;;;;;;;4954843;29;20627;-76
2021/04/13 11:05:29;;;;;;;3.77;1.07;;;;;;;;;;4953246;29;20216;-76
2021/04/13 11:08:05;;;;;;;3.77;1.10;;;;;;;;;;4954195;29;20197;-76
2021/04/13 11:10:40;;;;;;;7.17;1.00;;;;;;;;;;4953587;28;20283;-75
2021/04/13 11:13:12;;;;;;;3.93;1.00;;;;;;;;;;4952867;28;20196;-75
2021/04/13 11:15:54;;;;;;;3.87;1.00;;;;;;;;;;4953606;29;20175;-74
2021/04/13 11:18:38;;;;;;;3.80;0.83;;;;;;;;;;4952777;29;20211;-72
2021/04/13 11:21:25;;;;;;;3.27;0.80;;;;;;;;;;4954734;28;20184;-74
2021/04/13 11:24:00;;;;;;;4.00;1.03;;;;;;;;;;4954455;29;20185;-75
2021/04/13 11:26:45;;;;;;;3.43;0.80;;;;;;;;;;4954662;29;20255;-76
2021/04/13 11:29:16;;;;;;;3.57;0.90;;;;;;;;;;4954422;29;20192;-75
2021/04/13 11:32:01;;;;;;;2.43;0.90;;;;;;;;;;4954302;29;20180;-76
2021/04/13 11:34:55;;;;;;;1.77;0.80;;;;;;;;;;4950344;29;20239;-76
2021/04/13 11:37:21;;;;;;;1.77;0.70;;;;;;;;;;4949904;29;20223;-75
2021/04/13 11:40:02;;;;;;;2.70;0.73;;;;;;;;;;4952508;29;20697;-74
2021/04/13 11:42:29;;;;;;;3.13;0.93;;;;;;;;;;4952805;29;20182;-76
2021/04/13 11:45:01;;;;;;;2.47;0.80;;;;;;;;;;4952687;29;20181;-74
2021/04/13 11:47:27;;;;;;;2.53;0.70;;;;;;;;;;4950538;28;20189;-74
2021/04/13 11:49:57;;;;;;;2.40;1.00;;;;;;;;;;4952978;29;20216;-74
2021/04/13 11:52:26;;;;;;;2.40;0.80;;;;;;;;;;4951263;29;20177;-74
2021/04/13 11:54:53;;;;;;;1.50;0.80;;;;;;;;;;4952677;29;20526;-75
2021/04/13 11:57:26;;;;;;;2.37;0.90;;;;;;;;;;4953919;28;20287;-76
2021/04/13 12:00:10;;;;;;;4.13;0.93;;;;;;;;;;4953075;29;20217;-76
2021/04/13 12:02:38;;;;;;;3.20;0.80;;;;;;;;;;4952685;29;20227;-74
2021/04/13 12:05:04;;;;;;;2.60;1.07;;;;;;;;;;4954097;28;20641;-74
2021/04/13 12:07:49;;;;;;;2.50;0.93;;;;;;;;;;4952721;29;20260;-76
2021/04/13 12:10:27;;;;;;;2.70;0.87;;;;;;;;;;4954139;29;20176;-76
2021/04/13 12:12:53;;;;;;;1.33;0.70;;;;;;;;;;4953938;29;20266;-77
2021/04/13 12:15:19;;;;;;;3.43;0.90;;;;;;;;;;4952802;29;20248;-78
2021/04/13 12:17:46;;;;;;;2.63;0.80;;;;;;;;;;4953676;29;20206;-76
2021/04/13 12:20:29;;;;;;;3.53;0.87;;;;;;;;;;4952781;29;20760;-71
2021/04/13 12:23:08;;;;;;;4.07;1.33;;;;;;;;;;4934862;29;20173;-73
2021/04/13 12:25:40;;;;;;;5.07;1.10;;;;;;;;;;4947852;29;20335;-73
2021/04/13 12:28:10;;;;;;;2.70;0.80;;;;;;;;;;4952326;29;20186;-73
2021/04/13 12:30:51;;;;;;;3.40;0.90;;;;;;;;;;4952587;29;20221;-73
2021/04/13 12:33:26;;;;;;;1.60;0.80;;;;;;;;;;4936862;29;20181;-72
2021/04/13 12:35:56;;;;;;;3.47;0.80;;;;;;;;;;4954136;29;20594;-74
2021/04/13 12:38:41;;;;;;;2.43;0.90;;;;;;;;;;4953868;28;20223;-74
2021/04/13 12:41:25;;;;;;;2.83;0.80;;;;;;;;;;4953807;29;20187;-73
2021/04/13 12:43:52;;;;;;;1.73;0.70;;;;;;;;;;4952699;29;20533;-73
2021/04/13 12:46:38;;;;;;;3.53;1.07;;;;;;;;;;4936777;29;20186;-73
2021/04/13 12:49:05;;;;;;;2.40;0.80;;;;;;;;;;4952528;29;20204;-74
2021/04/13 12:51:34;;;;;;;4.60;0.97;;;;;;;;;;4952701;29;20564;-74
2021/04/13 12:54:14;;;;;;;2.97;1.20;;;;;;;;;;4954247;29;20731;-72
2021/04/13 12:56:40;;;;;;;1.87;0.70;;;;;;;;;;4952974;29;20208;-72
2021/04/13 12:59:07;;;;;;;3.07;1.00;;;;;;;;;;4954544;28;20201;-73
2021/04/13 13:01:38;;;;;;;5.17;1.10;;;;;;;;;;4940550;28;20188;-75
2021/04/13 13:04:09;;;;;;;2.40;0.80;;;;;;;;;;4956213;29;20656;-74
2021/04/13 13:06:35;;;;;;;4.73;1.10;;;;;;;;;;4936765;29;20609;-73
2021/04/13 13:09:03;;;;;;;4.43;1.00;;;;;;;;;;4947831;29;20234;-73
2021/04/13 13:11:29;;;;;;;3.67;1.03;;;;;;;;;;4936520;29;20195;-73
2021/04/13 13:13:55;;;;;;;4.57;0.90;;;;;;;;;;4936840;29;20197;-75
2021/04/13 13:16:25;;;;;;;3.70;1.13;;;;;;;;;;4936735;29;20247;-75
2021/04/13 13:18:52;;;;;;;2.87;0.80;;;;;;;;;;4952065;29;20205;-75
2021/04/13 13:21:20;;;;;;;5.60;1.30;;;;;;;;;;4955837;29;20175;-75
2021/04/13 13:23:47;;;;;;;3.17;1.27;;;;;;;;;;4937735;29;20592;-76
2021/04/13 13:26:13;;;;;;;3.77;1.20;;;;;;;;;;4939663;28;20839;-76
2021/04/13 13:28:43;;;;;;;2.17;0.90;;;;;;;;;;4938459;29;20219;-76
2021/04/13 13:31:09;;;;;;;7.30;0.73;;;;;;;;;;4955995;28;20182;-75
2021/04/13 13:33:35;;;;;;;2.53;0.90;;;;;;;;;;4955628;29;20173;-75
2021/04/13 13:36:01;;;;;;;3.70;1.13;;;;;;;;;;4978465;23;20232;-79
2021/04/13 13:38:27;;;;;;;2.83;1.00;;;;;;;;;;4993457;28;20663;-79
2021/04/13 13:40:53;;;;;;;4.67;1.97;;;;;;;;;;4994161;28;20265;-79
2021/04/13 13:43:23;;;;;;;1.80;0.80;;;;;;;;;;4993465;28;20642;-79
2021/04/13 13:45:49;;;;;;;5.87;1.10;;;;;;;;;;4974339;28;20206;-79
2021/04/13 13:48:21;;;;;;;2.53;0.80;;;;;;;;;;4974410;28;20334;-77
2021/04/13 13:50:47;;;;;;;3.47;0.80;;;;;;;;;;4974141;28;20266;-80
2021/04/13 13:53:21;;;;;;;2.63;1.00;;;;;;;;;;4974526;28;20231;-77
2021/04/13 13:55:58;;;;;;;2.63;0.87;;;;;;;;;;4975072;28;20224;-79
2021/04/13 13:58:25;;;;;;;2.57;0.93;;;;;;;;;;4974661;28;20588;-81
2021/04/13 14:00:51;;;;;;;2.33;0.80;;;;;;;;;;4972800;28;20188;-81
2021/04/13 14:03:18;;;;;;;2.93;0.93;;;;;;;;;;4974794;28;20190;-78
2021/04/13 14:06:04;;;;;;;2.67;1.00;;;;;;;;;;4972751;28;20198;-78
2021/04/13 14:08:32;;;;;;;3.37;0.90;;;;;;;;;;4962187;28;20214;-77
2021/04/13 14:11:09;;;;;;;2.10;1.03;;;;;;;;;;4977453;28;20178;-77
2021/04/13 14:13:36;;;;;;;6.17;1.10;;;;;;;;;;4978455;28;20575;-78
2021/04/13 14:16:22;;;;;;;1.93;0.77;;;;;;;;;;4977539;28;20653;-78
2021/04/13 14:18:55;;;;;;;1.80;0.60;;;;;;;;;;4976931;28;20206;-78
2021/04/13 14:21:21;;;;;;;3.53;0.90;;;;;;;;;;4975543;28;20210;-79
2021/04/13 14:23:48;;;;;;;3.70;0.87;;;;;;;;;;4973917;28;20636;-77
2021/04/13 14:26:27;;;;;;;5.10;1.17;;;;;;;;;;4974005;28;20199;-78
2021/04/13 14:29:03;;;;;;;3.40;0.90;;;;;;;;;;4969216;28;20187;-80
2021/04/13 14:31:29;;;;;;;2.63;0.90;;;;;;;;;;4959717;28;20206;-78
2021/04/13 14:33:55;;;;;;;3.47;0.87;;;;;;;;;;4975824;28;20263;-77
2021/04/13 14:36:21;;;;;;;2.07;0.80;;;;;;;;;;4975697;28;20213;-80
2021/04/13 14:38:47;;;;;;;2.07;0.90;;;;;;;;;;4957757;28;20180;-80
2021/04/13 14:41:13;;;;;;;2.03;0.80;;;;;;;;;;4974097;28;20715;-80
2021/04/13 14:43:39;;;;;;;1.70;1.00;;;;;;;;;;4971994;28;20192;-79
2021/04/13 14:46:05;;;;;;;2.73;0.83;;;;;;;;;;4957497;28;20295;-80
2021/04/13 14:48:31;;;;;;;2.90;0.93;;;;;;;;;;4989014;28;20231;-80
2021/04/13 14:50:57;;;;;;;5.13;1.10;;;;;;;;;;4973441;28;20181;-80
2021/04/13 14:53:23;;;;;;;4.67;1.17;;;;;;;;;;4958725;28;20180;-79
2021/04/13 14:55:49;;;;;;;3.87;0.87;;;;;;;;;;4974233;28;20197;-80
2021/04/13 14:58:16;;;;;;;2.00;1.00;;;;;;;;;;4956936;28;20692;-79
2021/04/13 15:00:42;;;;;;;3.13;0.80;;;;;;;;;;4973363;28;20207;-80
2021/04/13 15:03:08;;;;;;;3.30;1.00;;;;;;;;;;4957283;28;20208;-80
2021/04/13 15:05:35;;;;;;;3.37;0.80;;;;;;;;;;4973866;28;20169;-80
2021/04/13 15:08:01;;;;;;;2.07;0.80;;;;;;;;;;4957071;28;20180;-79